メインページ
METAR-TAF:

METAR-TAF

空港 :

ヘネラル・ロベルト・フィエロ・ヴィラロボス国際空港

チワワ州, メキシコ

緯度: 28-42N, 経度: 105-58W, 海抜: 1360m

現時点の気象観測

当レポートは1時間14分前の03:41(UTC)に作成
の風 6kt
気温 5°C
湿度 33%
気圧 1020 hPa
視程: 16.1km
高度20000ftの雲は散在している

METAR: MMCU 170341Z 18006KT 10SM SCT200 05/M10 A3013 RMK 8/002 HZY

時間: 21:55 (04:55 UTC)

予報

当レポートは11時間59分前の16:56(UTC)に作成
予報は16日の 18時(UTC)から 17日の 18時(UTC)まで有効
南/南東の風 8kt
視程: 10km
高度24000ftの千切れ雲あり
17日の 0400時(UTC)から
西の風 5kt
視程: 10km
高度20000ftの雲は散在している

TAF: MMCU 161656Z 1618/1718 16008KT P6SM BKN240 FM170400 27005KT P6SM SCT200

4,000以上の空港の気象観測と天気予報(METAR報とTAF報)

利用可能な観測所は地図上に黄色い丸と赤い丸で示す。

丸の上にカーソルを重ねると観測所名を参照できる。

次にクリックすると気象観測と天気予報を参照できる。

マップの切り替え:黒色「×」印の緑ボタンをクリックして拡大、「-」印の緑ボタンをクリックして縮小、緑色の三角印をクリックして隣りの地図に切り替え


METAR-TAF: